Donnellson, IA (52625)

10:54 PM CST on February 13, 2016 (GMT -0600)
Lang Enterprises | | Change Station
CLOSE
Current Station
Personal Weather Station
Location: Donnellson, IA
Elevation: 689 ft
Nearby Weather Stations
Active Advisory: Winter Weather Advisory

Elev 689 ft 40.68 °N, 91.57 °W | Updated 1 minute ago

Snow
Snow
17.7 °F
Feels Like 10 °F
N
5.0
Wind Variable Wind from SE
Gusts 5.0 mph

Today
High -- | Low -- °F
--% Chance of Precip.
Yesterday
High -- | Low -- °F
Precip. -- in
Pressure 30.40 in
Visibility 1.5 miles
Clouds Overcast 800 ft
Windchill 10 °F
Dew Point 15 °F
Humidity 89%
Rainfall 0.00 in
Snow Depth Not available.
7:03 AM 5:38 PM
Waxing Crescent, 37% visible
METAR KFSW 140435Z AUTO 13005KT 1 1/2SM -SN OVC008 M09/M11 A3040 RMK AO2
Pressure 30.40 in
Visibility 1.5 miles
Clouds Overcast 800 ft
Windchill 10 °F
Dew Point 15 °F
Humidity 89%
Rainfall 0.00 in
Snow Depth Not available.
7:03 AM 5:38 PM
Waxing Crescent, 37% visible
METAR KFSW 140435Z AUTO 13005KT 1 1/2SM -SN OVC008 M09/M11 A3040 RMK AO2

10-Day Weather Forecast

Almanac

Astronomy

Feb. 13, 2016 Rise Set
Actual Time
Civil Twilight
Nautical Twilight
Astronomical Twilight
Moon
Length of Visible Light
Length of Day
Tomorrow will be .
, % of the Moon is Illuminated

Today's Extremes

State Highs State Lows

Community

WunderPhotos

Upload Photos

1,892,746 photos uploaded!

WunderBlog® & News

Nearby

Air Quality

  Air Quality AQ Index Pollutant
Not available.

Snow Depth

Station Depth Elevation

Earthquake Activity

City Distance Mag. Time & Date
Minimum magnitude displayed is 2.5.

Coastal Water Temperatures

Place Temperature

Stations

Nearby Weather Stations

Station Location Temp. Windchill Dew Point Humidity Wind Precip. Elev Updated Type
                   

Watches & Warnings

Winter Weather Advisory
Issued: 7:52 PM CST Feb. 13, 2016 – National Weather Service

... Winter Weather Advisory remains in effect until 6 PM CST
Sunday...

* timing... late evening and continuing through Sunday.

* Snow accumulations... 3 to 5 inches.

* Wind... southeast 5 to 15 mph with gusts up to 25 mph overnight
and much of Sunday morning.

* Visibilities... less than a mile in the heavier snow at times.

* Impacts... snow covered and hazardous roads and low visibility
in heavier snowfall.

Precautionary/preparedness actions...

A Winter Weather Advisory for snow means that periods of snow
will cause travel difficulties. Be prepared for slick... snow
covered roads and limited visibilities... and be careful while
driving.